Time;durP1;ratioP1;P1;durP2;ratioP2;P2;SDS_P1;SDS_P2;PMS_P1;PMS_P2;Temp;Humidity;BMP_temperature;BMP_pressure;BME280_temperature;BME280_humidity;BME280_pressure;Samples;Min_cycle;Max_cycle;Signal;HPM_P1;HPM_P2
2020/12/23 00:04:17;;;;;;;6.70;1.30;;;;;;;6.05;86.98;100891.88;5020877;28;20036;-91
2020/12/23 00:06:45;;;;;;;10.07;1.92;;;;;;;6.03;87.17;100901.56;5002599;28;20392;-91
2020/12/23 00:09:13;;;;;;;7.55;2.22;;;;;;;6.02;87.14;100898.13;5003055;28;20346;-90
2020/12/23 00:11:40;;;;;;;9.90;2.00;;;;;;;6.02;87.61;100900.72;5022053;28;20014;-90
2020/12/23 00:14:12;;;;;;;7.30;2.00;;;;;;;5.97;88.09;100888.00;5011627;28;20022;-91
2020/12/23 00:16:42;;;;;;;7.03;2.10;;;;;;;5.94;88.32;100880.41;5006132;28;20041;-90
2020/12/23 00:19:09;;;;;;;7.38;2.28;;;;;;;5.91;88.69;100891.06;5005526;28;20492;-90
2020/12/23 00:21:36;;;;;;;7.90;1.77;;;;;;;5.90;89.28;100881.56;5006155;28;20543;-88
2020/12/23 00:24:02;;;;;;;5.68;1.52;;;;;;;5.86;89.47;100872.28;5007358;28;20465;-91
2020/12/23 00:26:29;;;;;;;14.00;2.20;;;;;;;5.82;89.95;100862.16;5006907;28;20499;-92
2020/12/23 00:28:56;;;;;;;9.48;1.38;;;;;;;5.79;90.43;100855.41;5005847;28;20408;-92
2020/12/23 00:31:25;;;;;;;6.90;1.00;;;;;;;5.71;90.67;100852.53;5007584;28;20528;-87
2020/12/23 00:33:53;;;;;;;4.05;1.17;;;;;;;5.66;90.70;100846.78;5008231;28;20381;-90
2020/12/23 00:36:21;;;;;;;6.25;1.20;;;;;;;5.62;90.82;100855.75;5008449;28;20549;-88
2020/12/23 00:38:47;;;;;;;7.70;1.00;;;;;;;5.57;90.77;100855.22;5004108;28;20473;-89
2020/12/23 00:41:14;;;;;;;7.55;1.38;;;;;;;5.54;90.80;100847.63;5003568;28;20350;-90
2020/12/23 00:43:41;;;;;;;3.80;1.25;;;;;;;5.51;91.31;100840.03;5006249;28;20033;-88
2020/12/23 00:46:11;;;;;;;5.07;1.10;;;;;;;5.51;91.48;100851.25;5015059;28;20057;-89
2020/12/23 00:48:38;;;;;;;6.05;1.10;;;;;;;5.52;91.74;100852.91;5016865;28;20461;-87
2020/12/23 00:51:13;;;;;;;4.35;1.35;;;;;;;5.51;91.94;100868.63;5010040;28;20515;-88
2020/12/23 00:53:43;;;;;;;3.87;1.53;;;;;;;5.49;91.81;100860.94;5007723;28;20432;-89
2020/12/23 00:56:10;;;;;;;6.75;1.00;;;;;;;5.48;91.70;100874.06;5007145;28;20754;-91
2020/12/23 00:58:37;;;;;;;8.05;1.30;;;;;;;5.47;91.77;100878.44;5007980;28;20603;-89
2020/12/23 01:04:26;;;;;;;5.72;1.13;;;;;;;5.43;91.21;100876.13;5022242;28;20167;-89
2020/12/23 01:06:53;;;;;;;4.28;1.00;;;;;;;5.39;91.08;100878.97;5004691;28;20370;-89
2020/12/23 01:09:21;;;;;;;8.07;1.60;;;;;;;5.35;91.17;100864.47;5005430;28;20354;-89
2020/12/23 01:11:49;;;;;;;5.07;1.13;;;;;;;5.33;90.93;100863.75;5005001;28;20452;-90
2020/12/23 01:14:17;;;;;;;5.43;1.10;;;;;;;5.32;90.93;100861.25;5003462;28;20401;-90
2020/12/23 01:16:43;;;;;;;5.75;1.10;;;;;;;5.31;90.66;100865.63;5004038;28;20441;-91
2020/12/23 01:19:10;;;;;;;6.47;1.08;;;;;;;5.31;90.60;100865.63;5030056;23;20075;-92
2020/12/23 01:21:37;;;;;;;6.15;1.02;;;;;;;5.28;90.23;100860.63;5022293;28;20472;-90
2020/12/23 01:24:04;;;;;;;8.25;1.60;;;;;;;5.26;90.41;100869.47;5022342;28;20484;-92
2020/12/23 01:26:30;;;;;;;3.80;1.23;;;;;;;5.24;90.68;100869.56;5021545;28;20480;-91
2020/12/23 01:28:57;;;;;;;7.47;1.23;;;;;;;5.24;90.63;100851.38;5023110;28;20021;-89
2020/12/23 01:31:25;;;;;;;9.38;0.90;;;;;;;5.25;90.83;100849.59;5023926;28;20380;-91
2020/12/23 01:33:51;;;;;;;5.88;1.35;;;;;;;5.22;90.98;100853.25;5021652;28;20595;-91
2020/12/23 01:36:18;;;;;;;9.55;2.05;;;;;;;5.21;91.12;100851.59;5021150;28;20444;-90
2020/12/23 01:38:44;;;;;;;7.95;0.80;;;;;;;5.21;91.24;100850.75;5021636;28;20372;-90
2020/12/23 01:41:10;;;;;;;4.95;0.75;;;;;;;5.20;91.62;100857.69;5022948;28;20093;-89
2020/12/23 01:43:38;;;;;;;5.78;0.95;;;;;;;5.18;91.89;100862.16;5024294;28;20033;-89
2020/12/23 01:46:05;;;;;;;7.13;1.15;;;;;;;5.18;92.22;100863.94;5025112;28;20468;-89
2020/12/23 01:48:32;;;;;;;3.00;0.88;;;;;;;5.15;92.29;100851.97;5023859;28;20026;-89
2020/12/23 01:51:02;;;;;;;2.72;0.70;;;;;;;5.10;92.39;100860.09;5023479;28;20362;-88
2020/12/23 01:53:30;;;;;;;5.28;0.57;;;;;;;5.05;92.22;100872.56;5025889;28;20400;-89
2020/12/23 01:56:00;;;;;;;3.60;0.63;;;;;;;5.03;92.49;100878.78;5025919;28;20488;-89
2020/12/23 01:58:26;;;;;;;4.80;1.17;;;;;;;4.99;92.45;100885.13;5023252;28;20029;-91
2020/12/23 02:00:53;;;;;;;4.00;0.80;;;;;;;4.98;92.66;100886.03;5022150;28;20446;-91
2020/12/23 02:03:21;;;;;;;5.75;1.00;;;;;;;4.97;92.75;100880.00;5022885;28;20392;-94
2020/12/23 02:05:48;;;;;;;4.20;0.77;;;;;;;4.97;92.86;100884.38;5022391;28;20404;-90
2020/12/23 02:08:15;;;;;;;4.10;0.63;;;;;;;4.97;93.01;100889.59;5037539;28;20427;-91
2020/12/23 02:10:41;;;;;;;7.18;0.70;;;;;;;4.98;92.91;100888.66;5021706;28;20358;-90
2020/12/23 02:13:09;;;;;;;3.50;0.60;;;;;;;5.00;92.98;100894.56;5021916;28;20388;-91
2020/12/23 02:15:35;;;;;;;4.57;0.70;;;;;;;4.98;93.16;100884.28;5022671;28;20546;-90
2020/12/23 02:18:02;;;;;;;3.00;0.73;;;;;;;4.99;93.50;100879.91;5022704;28;20089;-92
2020/12/23 02:20:28;;;;;;;5.82;1.00;;;;;;;4.99;93.55;100888.53;5020793;28;20379;-89
2020/12/23 02:22:55;;;;;;;5.75;1.63;;;;;;;4.99;93.25;100885.94;5022669;28;20088;-92
2020/12/23 02:25:22;;;;;;;8.80;1.15;;;;;;;4.96;93.70;100888.75;5022059;28;20018;-90
2020/12/23 02:27:48;;;;;;;9.38;0.85;;;;;;;4.95;94.05;100886.25;5025278;28;20427;-91
2020/12/23 02:30:14;;;;;;;5.63;1.10;;;;;;;4.92;94.32;100884.69;5024349;28;20623;-89
2020/12/23 02:32:41;;;;;;;6.80;1.05;;;;;;;4.90;94.48;100883.97;5022967;28;20097;-89
2020/12/23 02:35:09;;;;;;;5.10;1.05;;;;;;;4.90;94.81;100891.75;5023074;28;20030;-89
2020/12/23 02:37:35;;;;;;;5.75;1.15;;;;;;;4.87;95.06;100898.91;5021778;28;20388;-92
2020/12/23 02:40:03;;;;;;;3.75;0.90;;;;;;;4.82;95.41;100887.03;5036442;28;20468;-89
2020/12/23 02:42:30;;;;;;;5.30;1.00;;;;;;;4.77;95.78;100883.09;5022623;28;20392;-89
2020/12/23 02:44:57;;;;;;;9.27;1.20;;;;;;;4.70;96.73;100872.22;5019276;28;20368;-88
2020/12/23 02:47:23;;;;;;;4.78;1.35;;;;;;;4.65;97.70;100876.91;5019433;28;20366;-91
2020/12/23 02:49:51;;;;;;;5.72;0.90;;;;;;;4.63;98.10;100857.97;5018933;28;20028;-88
2020/12/23 02:52:19;;;;;;;11.95;1.58;;;;;;;4.59;98.86;100858.28;5020737;28;20384;-88
2020/12/23 02:54:45;;;;;;;7.20;1.20;;;;;;;4.55;99.10;100844.63;5038657;28;20047;-88
2020/12/23 02:57:11;;;;;;;6.68;1.20;;;;;;;4.51;99.67;100848.38;5036039;28;20076;-91
2020/12/23 02:59:40;;;;;;;4.90;1.50;;;;;;;4.48;100.00;100845.97;5021032;28;20380;-95
2020/12/23 03:02:07;;;;;;;7.63;1.05;;;;;;;4.40;100.00;100840.41;5023584;28;20376;-89
2020/12/23 03:04:36;;;;;;;6.53;1.35;;;;;;;4.34;100.00;100840.81;5024147;28;20469;-89
2020/12/23 03:07:03;;;;;;;6.00;1.00;;;;;;;4.30;100.00;100847.97;5025915;28;20469;-87
2020/12/23 03:09:29;;;;;;;6.32;1.02;;;;;;;4.28;100.00;100847.25;5024571;28;20487;-86
2020/12/23 03:11:56;;;;;;;3.10;1.10;;;;;;;4.27;100.00;100845.56;5021061;28;20465;-89
2020/12/23 03:19:34;;;;;;;12.27;1.40;;;;;;;4.25;100.00;100843.97;5042376;28;20360;-88
2020/12/23 03:22:03;;;;;;;11.25;1.52;;;;;;;4.27;100.00;100839.56;5041851;28;20392;-90
2020/12/23 03:24:28;;;;;;;7.45;1.42;;;;;;;4.27;100.00;100837.78;5022934;28;20373;-90
2020/12/23 03:26:55;;;;;;;5.82;1.13;;;;;;;4.28;100.00;100842.03;5025007;28;20034;-89
2020/12/23 03:32:43;;;;;;;5.50;1.10;;;;;;;4.20;100.00;100849.47;5066543;28;20047;-86
2020/12/23 03:35:09;;;;;;;7.75;1.60;;;;;;;4.17;100.00;100849.66;5044225;28;20384;-90
2020/12/23 03:37:36;;;;;;;3.50;0.68;;;;;;;4.13;100.00;100850.78;5043336;28;20025;-87
2020/12/23 03:40:03;;;;;;;2.25;0.70;;;;;;;4.09;100.00;100855.31;5043933;28;20383;-89
2020/12/23 03:42:30;;;;;;;5.78;0.60;;;;;;;4.04;100.00;100847.00;5043438;28;20555;-88
2020/12/23 03:44:56;;;;;;;4.57;0.75;;;;;;;4.00;100.00;100855.91;5043648;28;20456;-87
2020/12/23 03:49:50;;;;;;;6.47;0.75;;;;;;;3.95;100.00;100850.19;5041410;28;20394;-89
2020/12/23 03:52:15;;;;;;;4.22;0.73;;;;;;;3.94;100.00;100851.06;5043729;28;20053;-90
2020/12/23 03:54:46;;;;;;;8.00;0.70;;;;;;;3.93;100.00;100846.81;5037759;23;20033;-89
2020/12/23 03:59:41;;;;;;;4.40;0.73;;;;;;;3.96;100.00;100845.81;5049067;22;20128;-88
2020/12/23 04:02:11;;;;;;;5.80;0.50;;;;;;;3.96;100.00;100844.06;5058091;23;20049;-87
2020/12/23 04:04:37;;;;;;;5.93;0.88;;;;;;;3.99;100.00;100848.22;5022317;28;20468;-90
2020/12/23 04:07:04;;;;;;;7.85;1.05;;;;;;;4.02;100.00;100845.44;5021496;28;20037;-90
2020/12/23 04:09:30;;;;;;;6.80;0.82;;;;;;;4.06;100.00;100844.31;5025375;28;20342;-89
2020/12/23 04:11:56;;;;;;;13.75;1.52;;;;;;;4.06;100.00;100841.69;5023810;28;20087;-90
2020/12/23 04:14:22;;;;;;;7.10;0.75;;;;;;;4.03;100.00;100831.50;5021903;28;20025;-90
2020/12/23 04:16:49;;;;;;;5.45;1.00;;;;;;;4.02;100.00;100822.91;5023115;28;20468;-90
2020/12/23 04:19:15;;;;;;;6.15;1.10;;;;;;;4.02;100.00;100803.91;5022510;28;20419;-88
2020/12/23 04:21:41;;;;;;;5.97;1.20;;;;;;;4.02;100.00;100801.31;5021335;28;20078;-91
2020/12/23 04:24:08;;;;;;;7.82;0.75;;;;;;;4.00;100.00;100803.16;5021849;28;20503;-90
2020/12/23 04:26:34;;;;;;;5.75;0.88;;;;;;;3.99;100.00;100812.72;5022634;28;20496;-89
2020/12/23 04:29:01;;;;;;;6.05;0.80;;;;;;;3.99;100.00;100817.91;5024482;28;20464;-89
2020/12/23 04:31:34;;;;;;;10.30;1.00;;;;;;;3.98;100.00;100828.38;5025890;28;20022;-86
2020/12/23 04:34:07;;;;;;;9.60;0.90;;;;;;;3.98;100.00;100824.03;5044663;28;20367;-87
2020/12/23 04:36:38;;;;;;;5.80;0.90;;;;;;;4.00;100.00;100834.31;5045478;28;20412;-86
2020/12/23 04:39:05;;;;;;;5.65;1.20;;;;;;;4.02;100.00;100832.44;5045951;28;20472;-85
2020/12/23 04:41:35;;;;;;;6.03;0.90;;;;;;;4.03;100.00;100840.13;5027177;28;20445;-87
2020/12/23 04:44:07;;;;;;;6.53;0.80;;;;;;;4.05;100.00;100819.28;5039079;28;20388;-86
2020/12/23 04:46:40;;;;;;;11.73;1.02;;;;;;;4.05;100.00;100821.88;5028238;28;20415;-86
2020/12/23 04:49:12;;;;;;;8.05;1.30;;;;;;;4.03;100.00;100824.56;5046091;28;20564;-85
2020/12/23 04:51:39;;;;;;;5.10;0.90;;;;;;;4.04;100.00;100836.63;5044789;28;20353;-88
2020/12/23 04:54:08;;;;;;;13.20;1.60;;;;;;;4.07;100.00;100835.59;5025322;28;20464;-88
2020/12/23 04:56:38;;;;;;;9.82;1.10;;;;;;;4.10;100.00;100838.84;5041825;28;20546;-88
2020/12/23 04:59:05;;;;;;;8.05;0.90;;;;;;;4.11;100.00;100830.13;4988655;28;20385;-90
2020/12/23 05:01:31;;;;;;;10.50;1.40;;;;;;;4.13;100.00;100825.66;5001582;28;20394;-89
2020/12/23 05:03:57;;;;;;;9.07;1.38;;;;;;;4.15;100.00;100817.78;4999688;28;20401;-88
2020/12/23 05:06:24;;;;;;;11.95;1.30;;;;;;;4.15;100.00;100816.00;4997635;28;20026;-88
2020/12/23 05:08:50;;;;;;;7.30;0.88;;;;;;;4.13;100.00;100807.50;4997669;28;20430;-87
2020/12/23 05:11:17;;;;;;;10.23;0.73;;;;;;;4.13;100.00;100809.25;5000207;28;20093;-92
2020/12/23 05:13:44;;;;;;;3.10;0.90;;;;;;;4.13;100.00;100804.06;4997917;28;20026;-92
2020/12/23 05:16:12;;;;;;;4.35;0.73;;;;;;;4.11;100.00;100798.97;4998337;28;20637;-91
2020/12/23 05:18:41;;;;;;;11.85;1.08;;;;;;;4.11;100.00;100791.19;5001336;28;20028;-90
2020/12/23 05:21:14;;;;;;;7.45;0.90;;;;;;;4.11;100.00;100806.75;4998429;28;20443;-87
2020/12/23 05:23:42;;;;;;;6.82;0.70;;;;;;;4.11;100.00;100803.34;4996498;28;20429;-89
2020/12/23 05:26:10;;;;;;;6.45;1.80;;;;;;;4.11;100.00;100800.75;5000780;28;20034;-87
2020/12/23 05:28:37;;;;;;;8.75;0.95;;;;;;;4.10;100.00;100799.03;4998531;28;20378;-89
2020/12/23 05:31:08;;;;;;;8.40;1.05;;;;;;;4.09;100.00;100802.56;4999310;28;20018;-89
2020/12/23 05:33:37;;;;;;;5.13;0.93;;;;;;;4.08;100.00;100803.50;4999597;28;20429;-87
2020/12/23 05:36:09;;;;;;;8.18;1.20;;;;;;;4.07;100.00;100802.66;5001732;28;20397;-86
2020/12/23 05:38:37;;;;;;;7.22;1.02;;;;;;;4.07;100.00;100812.22;5000954;28;20386;-88
2020/12/23 05:41:06;;;;;;;11.02;1.17;;;;;;;4.07;100.00;100807.03;5001688;28;20524;-88
2020/12/23 05:43:33;;;;;;;12.68;2.10;;;;;;;4.09;100.00;100807.75;5001283;28;20632;-89
2020/12/23 05:46:02;;;;;;;2.47;0.57;;;;;;;4.08;100.00;100812.13;5001475;28;20038;-85
2020/12/23 05:48:30;;;;;;;7.35;1.00;;;;;;;4.09;100.00;100808.59;5001883;28;20425;-89
2020/12/23 05:50:58;;;;;;;8.77;1.13;;;;;;;4.08;100.00;100795.72;5001280;28;20057;-86
2020/12/23 05:53:27;;;;;;;10.60;1.35;;;;;;;4.07;100.00;100800.06;5001991;28;20377;-87
2020/12/23 05:55:56;;;;;;;7.30;0.90;;;;;;;4.07;100.00;100794.06;5022988;28;20385;-87
2020/12/23 05:58:23;;;;;;;6.30;1.00;;;;;;;4.06;100.00;100802.78;5026130;28;20484;-88
2020/12/23 06:00:51;;;;;;;5.22;0.73;;;;;;;4.05;100.00;100808.88;5040661;28;20065;-88
2020/12/23 06:03:42;;;;;;;3.05;1.10;;;;;;;4.04;100.00;100802.03;5026832;28;20435;-90
2020/12/23 06:06:11;;;;;;;9.90;0.80;;;;;;;4.03;100.00;100798.59;5025578;28;20526;-90
2020/12/23 06:08:39;;;;;;;7.32;1.17;;;;;;;4.01;100.00;100794.44;5039790;28;20052;-87
2020/12/23 06:11:08;;;;;;;9.63;1.20;;;;;;;4.00;100.00;100803.16;5024841;28;20365;-91
2020/12/23 06:13:57;;;;;;;6.28;0.90;;;;;;;4.01;100.00;100800.47;5042680;28;20496;-89
2020/12/23 06:16:31;;;;;;;10.13;0.90;;;;;;;4.03;100.00;100801.19;5024712;28;20017;-90
2020/12/23 06:19:03;;;;;;;8.43;0.90;;;;;;;4.02;100.00;100803.91;5024541;28;20383;-86
2020/12/23 06:21:29;;;;;;;4.20;0.65;;;;;;;4.01;100.00;100810.84;5025957;28;20029;-85
2020/12/23 06:24:13;;;;;;;7.60;0.80;;;;;;;4.00;100.00;100788.44;5022751;28;20417;-88
2020/12/23 06:26:43;;;;;;;8.40;0.70;;;;;;;4.00;100.00;100793.63;5039486;28;20021;-87
2020/12/23 06:29:13;;;;;;;10.82;1.30;;;;;;;4.00;100.00;100785.84;5025550;28;20461;-88
2020/12/23 06:31:46;;;;;;;6.93;0.70;;;;;;;4.02;100.00;100789.16;5023576;28;20044;-86
2020/12/23 06:34:25;;;;;;;8.35;0.88;;;;;;;4.03;100.00;100783.03;5041779;28;20088;-87
2020/12/23 06:36:52;;;;;;;5.55;1.42;;;;;;;4.03;100.00;100790.00;5028289;28;20036;-90
2020/12/23 06:39:42;;;;;;;5.70;0.70;;;;;;;4.06;100.00;100788.03;5027736;28;20388;-88
2020/12/23 06:42:08;;;;;;;9.30;0.60;;;;;;;4.06;100.00;100805.38;5027909;28;20457;-88
2020/12/23 06:44:43;;;;;;;6.60;0.73;;;;;;;4.05;100.00;100795.91;5044048;28;20028;-85
2020/12/23 06:47:10;;;;;;;3.40;0.55;;;;;;;4.04;100.00;100795.09;5045219;28;20400;-87
2020/12/23 06:49:44;;;;;;;5.72;0.95;;;;;;;4.02;100.00;100799.53;5043195;28;20375;-90
2020/12/23 06:52:27;;;;;;;5.13;0.87;;;;;;;4.02;100.00;100789.16;5029989;28;20473;-89
2020/12/23 06:55:02;;;;;;;5.70;1.38;;;;;;;4.04;100.00;100792.50;5042632;28;20590;-90
2020/12/23 06:57:37;;;;;;;;;;;;;;;4.08;100.00;100798.31;5044842;28;20461;-89
2020/12/23 07:00:21;;;;;;;5.90;0.90;;;;;;;4.06;100.00;100798.41;5043453;28;19909;-89
2020/12/23 07:02:49;;;;;;;4.70;1.40;;;;;;;4.06;100.00;100806.19;5042494;28;20501;-91
2020/12/23 07:05:21;;;;;;;7.53;1.20;;;;;;;4.07;100.00;100800.06;5027800;28;20385;-91
2020/12/23 07:07:57;;;;;;;9.63;1.30;;;;;;;4.06;100.00;100795.81;5054094;22;20061;-87
2020/12/23 07:10:33;;;;;;;8.55;1.20;;;;;;;4.07;100.00;100789.69;5008887;28;20036;-90
2020/12/23 07:13:14;;;;;;;6.28;0.95;;;;;;;4.09;100.00;100787.81;5007060;28;20030;-88
2020/12/23 07:15:53;;;;;;;7.45;1.23;;;;;;;4.13;100.00;100794.50;5006709;28;20492;-87
2020/12/23 07:18:24;;;;;;;4.93;0.90;;;;;;;4.15;100.00;100789.22;5009071;28;20365;-85
2020/12/23 07:21:06;;;;;;;11.43;1.55;;;;;;;4.16;100.00;100788.28;5006432;28;20026;-90
2020/12/23 07:23:35;;;;;;;7.68;1.00;;;;;;;4.18;100.00;100776.88;5008068;28;20472;-89
2020/12/23 07:26:06;;;;;;;6.53;0.98;;;;;;;4.19;100.00;100785.50;5007654;28;20416;-89
2020/12/23 07:28:40;;;;;;;8.85;1.20;;;;;;;4.19;100.00;100772.50;5006181;28;20457;-86
2020/12/23 07:31:11;;;;;;;13.82;1.90;;;;;;;4.19;100.00;100781.13;5020107;23;20045;-87
2020/12/23 07:33:38;;;;;;;10.95;1.05;;;;;;;4.21;100.00;100773.25;5007663;28;20474;-88
2020/12/23 07:36:05;;;;;;;16.73;1.38;;;;;;;4.22;100.00;100777.50;5006130;28;20511;-87
2020/12/23 07:38:40;;;;;;;8.15;1.42;;;;;;;4.20;100.00;100793.19;5008566;28;20014;-88
2020/12/23 07:43:36;;;;;;;13.00;1.30;;;;;;;4.20;100.00;100780.19;5061873;28;20369;-87
2020/12/23 07:46:07;;;;;;;8.32;1.20;;;;;;;4.21;100.00;100794.00;5063714;28;20491;-89
2020/12/23 07:48:33;;;;;;;6.97;1.20;;;;;;;4.20;100.00;100788.00;5065814;28;20055;-87
2020/12/23 07:51:00;;;;;;;9.00;1.58;;;;;;;4.24;100.00;100795.56;5063976;28;20495;-89
2020/12/23 07:53:29;;;;;;;6.65;0.80;;;;;;;4.25;100.00;100798.06;5066856;28;20025;-88
2020/12/23 07:56:08;;;;;;;7.63;1.30;;;;;;;4.26;100.00;100797.19;5063873;28;20433;-87
2020/12/23 07:58:35;;;;;;;7.78;0.98;;;;;;;4.27;100.00;100795.41;5044664;28;20063;-89
2020/12/23 08:01:07;;;;;;;3.42;0.70;;;;;;;4.27;100.00;100800.59;5063318;28;20474;-91
2020/12/23 08:03:34;;;;;;;8.65;1.10;;;;;;;4.27;100.00;100806.63;5065087;28;20047;-91
2020/12/23 08:06:10;;;;;;;7.32;1.00;;;;;;;4.29;100.00;100802.16;5062212;28;20472;-87
2020/12/23 08:08:44;;;;;;;7.60;0.80;;;;;;;4.32;100.00;100806.31;5064656;28;20456;-87
2020/12/23 08:11:19;;;;;;;7.63;1.40;;;;;;;4.34;100.00;100815.69;5066410;28;20420;-89
2020/12/23 08:13:45;;;;;;;9.40;1.50;;;;;;;4.36;100.00;100815.56;5064211;28;20352;-87
2020/12/23 08:16:14;;;;;;;15.07;1.55;;;;;;;4.40;100.00;100817.03;5063679;28;20450;-88
2020/12/23 08:18:43;;;;;;;12.05;1.70;;;;;;;4.41;100.00;100818.69;5065821;28;20088;-88
2020/12/23 08:21:19;;;;;;;12.10;0.98;;;;;;;4.45;100.00;100820.19;5066592;28;20528;-86
2020/12/23 08:23:52;;;;;;;11.25;1.13;;;;;;;4.45;100.00;100838.38;5066660;28;20021;-88
2020/12/23 08:26:21;;;;;;;6.75;0.70;;;;;;;4.47;100.00;100828.72;5067811;28;20032;-88
2020/12/23 08:28:51;;;;;;;9.68;1.20;;;;;;;4.49;100.00;100839.84;5064078;28;20052;-87
2020/12/23 08:38:44;;;;;;;6.32;1.10;;;;;;;4.53;100.00;100841.31;5068846;28;20100;-88
2020/12/23 08:41:31;;;;;;;8.18;1.00;;;;;;;4.56;100.00;100851.50;5067018;28;20361;-90
2020/12/23 08:44:11;;;;;;;8.00;1.08;;;;;;;4.59;100.00;100858.28;5066874;28;20460;-88
2020/12/23 08:46:42;;;;;;;10.35;1.30;;;;;;;4.60;100.00;100858.19;5050240;28;20542;-88
2020/12/23 08:52:31;;;;;;;4.43;0.98;;;;;;;4.60;100.00;100850.38;5065456;28;20134;-86
2020/12/23 08:54:58;;;;;;;16.88;1.17;;;;;;;4.61;100.00;100840.81;5049918;28;20001;-88
2020/12/23 08:57:28;;;;;;;3.55;0.57;;;;;;;4.60;100.00;100844.34;5053429;28;20456;-85
2020/12/23 08:59:55;;;;;;;8.48;1.10;;;;;;;4.60;100.00;100840.00;5049856;28;20021;-87
2020/12/23 09:02:22;;;;;;;9.10;1.00;;;;;;;4.58;100.00;100839.25;5047159;28;20444;-91
2020/12/23 09:04:48;;;;;;;13.93;1.77;;;;;;;4.59;100.00;100842.69;5046596;28;20560;-91
2020/12/23 09:07:21;;;;;;;8.57;1.70;;;;;;;4.61;100.00;100846.84;5049221;28;20033;-87
2020/12/23 09:09:50;;;;;;;5.32;1.00;;;;;;;4.67;100.00;100848.22;5048933;28;20120;-85
2020/12/23 09:12:21;;;;;;;5.47;1.27;;;;;;;4.68;100.00;100863.69;5048320;28;20480;-87
2020/12/23 09:14:48;;;;;;;4.55;1.30;;;;;;;4.70;100.00;100866.19;5046713;28;20495;-87
2020/12/23 09:17:25;;;;;;;9.07;1.35;;;;;;;4.72;100.00;100869.53;5044066;28;20025;-88
2020/12/23 09:20:05;;;;;;;9.35;1.88;;;;;;;4.74;100.00;100873.72;5044417;28;20342;-87
2020/12/23 09:22:36;;;;;;;8.00;0.90;;;;;;;4.81;100.00;100884.53;5042661;28;20023;-89
2020/12/23 09:25:20;;;;;;;4.43;0.95;;;;;;;4.83;100.00;100880.06;5041844;28;20395;-89
2020/12/23 09:27:49;;;;;;;6.88;1.05;;;;;;;4.81;100.00;100881.94;5041164;28;20570;-88
2020/12/23 09:33:42;;;;;;;8.23;1.20;;;;;;;4.86;100.00;100892.88;5062663;28;20044;-90
2020/12/23 09:36:08;;;;;;;5.72;1.05;;;;;;;4.92;100.00;100891.66;5059533;28;20483;-91
2020/12/23 09:38:36;;;;;;;8.23;1.83;;;;;;;4.88;100.00;100883.19;5042588;28;20476;-88
2020/12/23 09:41:09;;;;;;;9.77;1.17;;;;;;;4.85;100.00;100892.97;5046874;28;20430;-88
2020/12/23 09:43:37;;;;;;;5.22;0.95;;;;;;;4.85;100.00;100896.41;5043214;28;20499;-90
2020/12/23 09:46:08;;;;;;;6.85;1.00;;;;;;;4.88;100.00;100892.75;5042552;28;20092;-91
2020/12/23 09:48:34;;;;;;;10.00;2.35;;;;;;;4.87;100.00;100889.34;5044193;28;20017;-86
2020/12/23 09:51:01;;;;;;;5.43;1.00;;;;;;;4.91;100.00;100905.59;5041406;28;20021;-90
2020/12/23 09:53:27;;;;;;;4.78;0.90;;;;;;;4.91;100.00;100909.03;5040534;28;20384;-88
2020/12/23 09:55:55;;;;;;;6.55;1.08;;;;;;;4.92;100.00;100904.66;5040328;28;20486;-90
2020/12/23 09:58:21;;;;;;;4.82;0.98;;;;;;;4.94;100.00;100911.41;5039407;28;20460;-87
2020/12/23 10:00:49;;;;;;;5.28;0.80;;;;;;;5.00;100.00;100915.38;5039543;28;20464;-88
2020/12/23 10:03:16;;;;;;;4.03;0.98;;;;;;;4.96;100.00;100914.75;5042099;28;20376;-89
2020/12/23 10:05:43;;;;;;;4.97;1.17;;;;;;;5.00;100.00;100908.41;5041285;28;20539;-89
2020/12/23 10:08:10;;;;;;;4.65;1.13;;;;;;;4.99;100.00;100905.91;5040281;28;20372;-87
2020/12/23 10:10:37;;;;;;;5.43;0.93;;;;;;;4.97;100.00;100906.00;5041058;28;20371;-86
2020/12/23 10:13:04;;;;;;;6.80;1.17;;;;;;;5.01;100.00;100922.25;5039423;28;20491;-86
2020/12/23 10:15:30;;;;;;;10.75;1.10;;;;;;;5.02;100.00;100910.91;5039972;28;20464;-87
2020/12/23 10:17:58;;;;;;;8.75;1.83;;;;;;;5.02;100.00;100916.09;5040588;28;20428;-87
2020/12/23 10:20:27;;;;;;;8.80;1.20;;;;;;;5.03;100.00;100922.97;5042215;28;20432;-90
2020/12/23 10:22:52;;;;;;;14.27;2.38;;;;;;;5.04;100.00;100928.06;5042764;28;20415;-89
2020/12/23 10:28:41;;;;;;;9.40;1.52;;;;;;;5.05;100.00;100936.72;5060176;28;20044;-89
2020/12/23 10:31:08;;;;;;;7.63;1.13;;;;;;;5.00;100.00;100928.38;5043694;28;20514;-86
2020/12/23 10:33:42;;;;;;;7.65;1.15;;;;;;;4.97;100.00;100932.00;5043958;28;20622;-89
2020/12/23 10:36:16;;;;;;;11.15;1.50;;;;;;;4.95;100.00;100933.03;5042566;28;20460;-90
2020/12/23 10:38:42;;;;;;;6.82;1.10;;;;;;;4.92;100.00;100936.69;5039747;28;20582;-89
2020/12/23 10:41:09;;;;;;;6.95;1.20;;;;;;;4.89;100.00;100944.69;5039682;28;20380;-90
2020/12/23 10:43:41;;;;;;;5.53;1.08;;;;;;;4.87;100.00;100946.50;5044059;28;20456;-92
2020/12/23 10:46:29;;;;;;;6.75;0.93;;;;;;;4.87;100.00;100956.91;5060538;28;20032;-91
2020/12/23 10:48:58;;;;;;;8.10;1.50;;;;;;;4.85;100.00;100942.34;5042740;28;20610;-89
2020/12/23 10:51:25;;;;;;;8.23;1.30;;;;;;;4.83;100.00;100950.25;5043766;28;20557;-92
2020/12/23 10:53:52;;;;;;;10.93;0.80;;;;;;;4.82;100.00;100948.56;5041652;28;20357;-90
2020/12/23 10:56:21;;;;;;;8.60;1.33;;;;;;;4.80;100.00;100948.69;5042302;28;20067;-87
2020/12/23 10:58:53;;;;;;;13.27;1.67;;;;;;;4.79;100.00;100957.41;5072409;28;20040;-86
2020/12/23 11:01:22;;;;;;;10.80;1.45;;;;;;;4.77;100.00;100959.28;5045737;28;20029;-87
2020/12/23 11:04:10;;;;;;;9.38;1.60;;;;;;;4.76;100.00;100965.41;5062076;28;20486;-85
2020/12/23 11:06:47;;;;;;;6.32;1.50;;;;;;;4.78;100.00;100957.50;5061424;28;20045;-87
2020/12/23 11:09:15;;;;;;;15.57;2.42;;;;;;;4.78;100.00;100958.34;5043038;28;20371;-90
2020/12/23 11:11:52;;;;;;;11.57;1.98;;;;;;;4.77;100.00;100953.25;5044869;28;20442;-86
2020/12/23 11:14:27;;;;;;;4.32;0.93;;;;;;;4.75;100.00;100966.34;5061438;28;20446;-92
2020/12/23 11:16:59;;;;;;;8.00;1.45;;;;;;;4.69;100.00;100964.09;5044525;28;20025;-87
2020/12/23 11:19:41;;;;;;;4.78;1.17;;;;;;;4.65;100.00;100960.03;5061452;28;20032;-92
2020/12/23 11:22:08;;;;;;;7.80;1.20;;;;;;;4.63;100.00;100958.47;5045082;28;20025;-85
2020/12/23 11:24:40;;;;;;;7.63;1.42;;;;;;;4.61;100.00;100962.94;5048769;28;20431;-88
2020/12/23 11:27:42;;;;;;;5.93;1.20;;;;;;;4.60;100.00;100951.72;5048917;28;20509;-86
2020/12/23 11:30:19;;;;;;;12.30;2.30;;;;;;;4.61;100.00;100955.13;5065937;28;20032;-88
2020/12/23 11:32:55;;;;;;;4.03;1.10;;;;;;;4.63;100.00;100935.94;5047010;28;20032;-90
2020/12/23 11:35:30;;;;;;;8.85;1.52;;;;;;;4.64;100.00;100954.94;5047591;28;20391;-87
2020/12/23 11:37:56;;;;;;;10.30;1.20;;;;;;;4.63;100.00;100945.47;5048589;28;20032;-91
2020/12/23 11:40:33;;;;;;;7.07;1.42;;;;;;;4.64;100.00;100958.38;5050275;28;20037;-87
2020/12/23 11:43:00;;;;;;;2.95;0.75;;;;;;;4.64;100.00;100939.34;5056542;28;20029;-93
2020/12/23 11:45:33;;;;;;;5.05;0.90;;;;;;;4.58;100.00;100945.78;5074599;28;20020;-87
2020/12/23 11:48:05;;;;;;;8.40;2.03;;;;;;;4.57;100.00;100953.63;5056240;28;20021;-90
2020/12/23 11:50:33;;;;;;;7.50;1.30;;;;;;;4.57;100.00;100959.66;5075272;28;20013;-89
2020/12/23 11:53:01;;;;;;;7.72;1.88;;;;;;;4.61;100.00;100953.38;5056263;28;20017;-88
2020/12/23 11:55:28;;;;;;;4.10;0.73;;;;;;;4.66;100.00;100964.31;5051734;28;20456;-87
2020/12/23 11:57:54;;;;;;;4.60;1.17;;;;;;;4.67;100.00;100958.19;5051596;28;20029;-89
2020/12/23 12:00:23;;;;;;;8.00;1.30;;;;;;;4.67;100.00;100973.75;5053736;28;20097;-90
2020/12/23 12:02:50;;;;;;;11.45;1.88;;;;;;;4.69;100.00;100969.31;5046280;28;20368;-87
2020/12/23 12:05:20;;;;;;;6.47;1.52;;;;;;;4.69;100.00;100964.09;5051523;28;20413;-88
2020/12/23 12:07:47;;;;;;;3.35;0.80;;;;;;;4.73;100.00;100972.53;5052722;28;20025;-88
2020/12/23 12:13:01;;;;;;;9.15;0.80;;;;;;;4.72;100.00;100971.69;4988820;28;20046;-91
2020/12/23 12:15:42;;;;;;;5.10;1.60;;;;;;;4.72;100.00;100966.50;4960051;28;20042;-88
2020/12/23 12:18:16;;;;;;;10.45;1.10;;;;;;;4.72;100.00;100971.69;4992114;28;20027;-90
2020/12/23 12:20:44;;;;;;;6.85;1.17;;;;;;;4.76;100.00;100974.97;4989457;28;20413;-90